Morgan, Kentucky
Current Conditions -  °F | °C
As of 10:53 AM on Tuesday 21 Oct 2014 (Local Time) from KLUK Reporting Station
Overcast Overcast  
Wind Chill: 53°   Ceiling: 5500
Heat Index: 53°   Visibility: 10mi
Dew Point: 42°   Wind: 13mph
Humidity: 66%   Direction: 330°NNW
Pressure: 30.04"   Gusts: 20mph
Location:  38.6506°N, 84.351°W
Report Text: KLUK 211453Z 33011G17KT 300V360 10SM OVC055 12/06 A3004 RMK AO2 SLP174 T01170056 51018
Loading
Personal Weather Stations






























Interactive Weather Map
Tropical Storm Tracking
New forecast layout! Learn more

10-Day Weather Forecast

Advertisements
Track Severe Weather on mobile